sensor_id;sensor_type;location;lat;lon;timestamp;pressure;altitude;pressure_sealevel;temperature;humidity
3524;BME280;1776;53.330;11.498;2022-10-03T00:00:41;54012.81;;;-147.39;78.38
3524;BME280;1776;53.330;11.498;2022-10-03T00:03:49;54004.63;;;-147.39;78.13
3524;BME280;1776;53.330;11.498;2022-10-03T00:09:13;53998.47;;;-147.39;78.79
3524;BME280;1776;53.330;11.498;2022-10-03T00:11:55;54014.84;;;-147.39;78.90
3524;BME280;1776;53.330;11.498;2022-10-03T00:14:31;54023.06;;;-147.39;78.73
3524;BME280;1776;53.330;11.498;2022-10-03T00:17:36;53996.41;;;-147.39;78.78
3524;BME280;1776;53.330;11.498;2022-10-03T00:22:54;54043.53;;;-147.39;78.22
3524;BME280;1776;53.330;11.498;2022-10-03T00:28:17;54045.59;;;-147.39;78.13
3524;BME280;1776;53.330;11.498;2022-10-03T00:33:58;54002.56;;;-147.39;77.97
3524;BME280;1776;53.330;11.498;2022-10-03T00:37:05;54002.56;;;-147.39;78.01
3524;BME280;1776;53.330;11.498;2022-10-03T00:51:08;54002.56;;;-147.39;77.71
3524;BME280;1776;53.330;11.498;2022-10-03T00:59:15;54006.66;;;-147.39;77.59
3524;BME280;1776;53.330;11.498;2022-10-03T01:01:47;54012.81;;;-147.39;77.74
3524;BME280;1776;53.330;11.498;2022-10-03T01:07:04;54035.34;;;-147.39;77.91
3524;BME280;1776;53.330;11.498;2022-10-03T01:09:45;54021.00;;;-147.39;78.02
3524;BME280;1776;53.330;11.498;2022-10-03T01:15:35;54000.50;;;-147.39;78.50
3524;BME280;1776;53.330;11.498;2022-10-03T01:18:30;53986.19;;;-147.39;78.74
3524;BME280;1776;53.330;11.498;2022-10-03T01:29:25;54004.63;;;-147.39;78.88
3524;BME280;1776;53.330;11.498;2022-10-03T01:32:21;54004.63;;;-147.39;78.74
3524;BME280;1776;53.330;11.498;2022-10-03T01:37:51;53990.28;;;-147.39;79.01
3524;BME280;1776;53.330;11.498;2022-10-03T01:40:33;53994.38;;;-147.39;78.70
3524;BME280;1776;53.330;11.498;2022-10-03T01:46:07;54002.56;;;-147.39;78.82
3524;BME280;1776;53.330;11.498;2022-10-03T01:48:58;53986.19;;;-147.39;78.93
3524;BME280;1776;53.330;11.498;2022-10-03T01:54:42;54033.28;;;-147.39;78.88
3524;BME280;1776;53.330;11.498;2022-10-03T01:57:28;54021.00;;;-147.39;78.96
3524;BME280;1776;53.330;11.498;2022-10-03T02:00:17;54031.25;;;-147.39;78.64
3524;BME280;1776;53.330;11.498;2022-10-03T02:03:07;54006.66;;;-147.39;78.57
3524;BME280;1776;53.330;11.498;2022-10-03T02:05:48;54008.72;;;-147.39;78.51
3524;BME280;1776;53.330;11.498;2022-10-03T02:08:25;54010.75;;;-147.39;78.55
3524;BME280;1776;53.330;11.498;2022-10-03T02:11:06;54029.19;;;-147.39;78.31
3524;BME280;1776;53.330;11.498;2022-10-03T02:13:48;53990.28;;;-147.39;78.41
3524;BME280;1776;53.330;11.498;2022-10-03T02:16:23;54029.19;;;-147.39;78.36
3524;BME280;1776;53.330;11.498;2022-10-03T02:19:04;54014.84;;;-147.39;78.16
3524;BME280;1776;53.330;11.498;2022-10-03T02:21:32;53990.28;;;-147.39;78.20
3524;BME280;1776;53.330;11.498;2022-10-03T02:27:27;54053.78;;;-147.39;78.01
3524;BME280;1776;53.330;11.498;2022-10-03T02:30:17;54010.75;;;-147.39;78.18
3524;BME280;1776;53.330;11.498;2022-10-03T02:38:42;54014.84;;;-147.39;77.40
3524;BME280;1776;53.330;11.498;2022-10-03T02:44:00;54049.69;;;-147.39;77.19
3524;BME280;1776;53.330;11.498;2022-10-03T02:53:11;54025.09;;;-147.39;77.90
3524;BME280;1776;53.330;11.498;2022-10-03T02:56:14;54018.97;;;-147.39;78.12
3524;BME280;1776;53.330;11.498;2022-10-03T03:02:00;54037.41;;;-147.39;77.87
3524;BME280;1776;53.330;11.498;2022-10-03T03:08:00;54047.63;;;-147.39;78.00
3524;BME280;1776;53.330;11.498;2022-10-03T03:10:58;54014.84;;;-147.39;78.52
3524;BME280;1776;53.330;11.498;2022-10-03T03:19:40;54025.09;;;-147.39;78.41
3524;BME280;1776;53.330;11.498;2022-10-03T03:28:00;54002.56;;;-147.39;78.24
3524;BME280;1776;53.330;11.498;2022-10-03T03:30:40;54025.09;;;-147.39;78.63
3524;BME280;1776;53.330;11.498;2022-10-03T03:33:28;54047.63;;;-147.39;78.64
3524;BME280;1776;53.330;11.498;2022-10-03T03:36:28;53998.47;;;-147.39;78.72
3524;BME280;1776;53.330;11.498;2022-10-03T03:41:47;54021.00;;;-147.39;78.62
3524;BME280;1776;53.330;11.498;2022-10-03T03:47:24;54029.19;;;-147.39;78.50
3524;BME280;1776;53.330;11.498;2022-10-03T03:50:10;54033.28;;;-147.39;78.58
3524;BME280;1776;53.330;11.498;2022-10-03T03:58:32;54039.44;;;-147.39;78.55
3524;BME280;1776;53.330;11.498;2022-10-03T04:12:23;54010.75;;;-147.39;79.24
3524;BME280;1776;53.330;11.498;2022-10-03T04:21:08;54025.09;;;-147.39;79.22
3524;BME280;1776;53.330;11.498;2022-10-03T04:24:00;54039.44;;;-147.39;79.56
3524;BME280;1776;53.330;11.498;2022-10-03T04:26:39;54004.63;;;-147.39;79.43
3524;BME280;1776;53.330;11.498;2022-10-03T04:29:41;54037.41;;;-147.39;79.49
3524;BME280;1776;53.330;11.498;2022-10-03T04:32:44;54027.16;;;-147.39;79.87
3524;BME280;1776;53.330;11.498;2022-10-03T04:35:32;54055.84;;;-147.39;79.87
3524;BME280;1776;53.330;11.498;2022-10-03T04:38:17;54051.75;;;-147.39;80.03
3524;BME280;1776;53.330;11.498;2022-10-03T04:40:54;54033.28;;;-147.39;79.85
3524;BME280;1776;53.330;11.498;2022-10-03T04:43:40;54014.84;;;-147.39;79.91
3524;BME280;1776;53.330;11.498;2022-10-03T04:46:34;54037.41;;;-147.39;80.24
3524;BME280;1776;53.330;11.498;2022-10-03T04:52:00;54021.00;;;-147.39;80.26
3524;BME280;1776;53.330;11.498;2022-10-03T04:54:44;54023.06;;;-147.39;79.72
3524;BME280;1776;53.330;11.498;2022-10-03T04:57:40;54047.63;;;-147.39;79.97
3524;BME280;1776;53.330;11.498;2022-10-03T05:00:26;54018.97;;;-147.39;79.95
3524;BME280;1776;53.330;11.498;2022-10-03T05:05:59;53998.47;;;-147.39;79.61
3524;BME280;1776;53.330;11.498;2022-10-03T05:08:46;54035.34;;;-147.39;79.74
3524;BME280;1776;53.330;11.498;2022-10-03T05:11:19;54025.09;;;-147.39;79.79
3524;BME280;1776;53.330;11.498;2022-10-03T05:13:59;54033.28;;;-147.39;79.70
3524;BME280;1776;53.330;11.498;2022-10-03T05:16:42;54043.53;;;-147.39;79.80
3524;BME280;1776;53.330;11.498;2022-10-03T05:21:46;54053.78;;;-147.39;79.64
3524;BME280;1776;53.330;11.498;2022-10-03T05:24:34;54010.75;;;-147.39;79.45
3524;BME280;1776;53.330;11.498;2022-10-03T05:27:11;54012.81;;;-147.39;79.90
3524;BME280;1776;53.330;11.498;2022-10-03T05:32:47;54053.78;;;-147.39;80.29
3524;BME280;1776;53.330;11.498;2022-10-03T05:37:55;54023.06;;;-147.39;80.12
3524;BME280;1776;53.330;11.498;2022-10-03T05:40:25;54018.97;;;-147.39;80.03
3524;BME280;1776;53.330;11.498;2022-10-03T05:51:37;54018.97;;;-147.39;79.97
3524;BME280;1776;53.330;11.498;2022-10-03T06:00:15;54053.78;;;-147.39;79.61
3524;BME280;1776;53.330;11.498;2022-10-03T06:03:18;54010.75;;;-147.39;79.28
3524;BME280;1776;53.330;11.498;2022-10-03T06:06:12;54051.75;;;-147.39;79.06
3524;BME280;1776;53.330;11.498;2022-10-03T06:14:34;54027.16;;;-147.39;78.83
3524;BME280;1776;53.330;11.498;2022-10-03T06:28:54;54043.53;;;-147.39;77.78
3524;BME280;1776;53.330;11.498;2022-10-03T06:37:11;53994.38;;;-147.39;77.77
3524;BME280;1776;53.330;11.498;2022-10-03T06:40:09;54008.72;;;-147.39;77.32
3524;BME280;1776;53.330;11.498;2022-10-03T06:45:59;54008.72;;;-147.39;77.71
3524;BME280;1776;53.330;11.498;2022-10-03T06:54:47;54000.50;;;-147.39;77.82
3524;BME280;1776;53.330;11.498;2022-10-03T06:57:57;54018.97;;;-147.39;78.13
3524;BME280;1776;53.330;11.498;2022-10-03T07:00:46;54037.41;;;-147.39;77.97
3524;BME280;1776;53.330;11.498;2022-10-03T07:08:52;54002.56;;;-147.39;77.84
3524;BME280;1776;53.330;11.498;2022-10-03T07:17:18;54010.75;;;-147.39;77.86
3524;BME280;1776;53.330;11.498;2022-10-03T07:19:55;54016.91;;;-147.39;77.44
3524;BME280;1776;53.330;11.498;2022-10-03T07:22:37;53996.41;;;-147.39;77.63
3524;BME280;1776;53.330;11.498;2022-10-03T07:25:35;53996.41;;;-147.39;77.55
3524;BME280;1776;53.330;11.498;2022-10-03T07:28:42;54006.66;;;-147.39;77.27
3524;BME280;1776;53.330;11.498;2022-10-03T07:31:46;53992.31;;;-147.39;77.18
3524;BME280;1776;53.330;11.498;2022-10-03T07:34:38;53986.19;;;-147.39;76.40
3524;BME280;1776;53.330;11.498;2022-10-03T07:46:25;53967.72;;;-147.39;75.68
3524;BME280;1776;53.330;11.498;2022-10-03T07:57:42;53990.28;;;-147.39;75.72
3524;BME280;1776;53.330;11.498;2022-10-03T08:00:45;53992.31;;;-147.39;75.37
3524;BME280;1776;53.330;11.498;2022-10-03T08:03:54;53953.41;;;-147.39;75.27
3524;BME280;1776;53.330;11.498;2022-10-03T08:06:37;53980.03;;;-147.39;75.16
3524;BME280;1776;53.330;11.498;2022-10-03T08:09:37;53973.88;;;-147.39;75.31
3524;BME280;1776;53.330;11.498;2022-10-03T08:15:28;53971.84;;;-147.39;75.26
3524;BME280;1776;53.330;11.498;2022-10-03T08:20:56;53945.19;;;-147.39;74.60
3524;BME280;1776;53.330;11.498;2022-10-03T08:26:43;53992.31;;;-147.39;74.55
3524;BME280;1776;53.330;11.498;2022-10-03T08:46:05;53953.41;;;-147.39;74.30
3524;BME280;1776;53.330;11.498;2022-10-03T08:51:27;53990.28;;;-147.39;73.58
3524;BME280;1776;53.330;11.498;2022-10-03T08:57:16;53904.22;;;-147.39;72.87
3524;BME280;1776;53.330;11.498;2022-10-03T09:03:10;53945.19;;;-147.39;71.37
3524;BME280;1776;53.330;11.498;2022-10-03T09:12:01;53918.56;;;-147.39;68.85
3524;BME280;1776;53.330;11.498;2022-10-03T09:20:18;53848.91;;;-147.39;61.40
3524;BME280;1776;53.330;11.498;2022-10-03T09:26:50;53896.03;;;-147.39;63.91
3524;BME280;1776;53.330;11.498;2022-10-03T09:29:48;53898.06;;;-147.39;65.75
3524;BME280;1776;53.330;11.498;2022-10-03T09:32:32;53861.19;;;-147.39;62.88
3524;BME280;1776;53.330;11.498;2022-10-03T09:44:03;53996.41;;;-147.39;63.89
3524;BME280;1776;53.330;11.498;2022-10-03T09:46:58;53889.88;;;-147.39;63.05
3524;BME280;1776;53.330;11.498;2022-10-03T10:06:43;53883.75;;;-147.39;62.65
3524;BME280;1776;53.330;11.498;2022-10-03T10:12:37;53904.22;;;-147.39;63.50
3524;BME280;1776;53.330;11.498;2022-10-03T10:18:07;53914.47;;;-147.39;63.37
3524;BME280;1776;53.330;11.498;2022-10-03T10:26:55;53916.50;;;-147.39;63.08
3524;BME280;1776;53.330;11.498;2022-10-03T10:40:35;53926.75;;;-147.39;62.47
3524;BME280;1776;53.330;11.498;2022-10-03T10:43:38;53896.03;;;-147.39;60.87
3524;BME280;1776;53.330;11.498;2022-10-03T10:52:02;53883.75;;;-147.39;59.63
3524;BME280;1776;53.330;11.498;2022-10-03T10:54:39;53873.50;;;-147.39;59.61
3524;BME280;1776;53.330;11.498;2022-10-03T11:08:46;53859.16;;;-147.39;57.23
3524;BME280;1776;53.330;11.498;2022-10-03T11:11:58;53844.81;;;-147.39;57.86
3524;BME280;1776;53.330;11.498;2022-10-03T11:14:42;53824.31;;;-147.39;57.20
3524;BME280;1776;53.330;11.498;2022-10-03T11:17:41;53848.91;;;-147.39;56.44
3524;BME280;1776;53.330;11.498;2022-10-03T11:23:26;53816.13;;;-147.39;54.41
3524;BME280;1776;53.330;11.498;2022-10-03T11:32:22;53842.75;;;-147.39;55.30
3524;BME280;1776;53.330;11.498;2022-10-03T11:37:41;53853.00;;;-147.39;55.04
3524;BME280;1776;53.330;11.498;2022-10-03T11:43:32;53850.97;;;-147.39;54.60
3524;BME280;1776;53.330;11.498;2022-10-03T11:46:21;53844.81;;;-147.39;54.68
3524;BME280;1776;53.330;11.498;2022-10-03T11:49:09;53836.63;;;-147.39;55.09
3524;BME280;1776;53.330;11.498;2022-10-03T11:51:43;53824.31;;;-147.39;55.11
3524;BME280;1776;53.330;11.498;2022-10-03T11:54:21;53832.53;;;-147.39;55.71
3524;BME280;1776;53.330;11.498;2022-10-03T11:56:50;53848.91;;;-147.39;56.34
3524;BME280;1776;53.330;11.498;2022-10-03T11:59:30;53859.16;;;-147.39;56.28
3524;BME280;1776;53.330;11.498;2022-10-03T12:02:12;53844.81;;;-147.39;55.77
3524;BME280;1776;53.330;11.498;2022-10-03T12:05:00;53818.19;;;-147.39;54.32
3524;BME280;1776;53.330;11.498;2022-10-03T12:10:57;53799.75;;;-147.39;54.72
3524;BME280;1776;53.330;11.498;2022-10-03T12:16:49;53848.91;;;-147.39;54.27
3524;BME280;1776;53.330;11.498;2022-10-03T12:19:44;53863.25;;;-147.39;54.47
3524;BME280;1776;53.330;11.498;2022-10-03T12:25:17;53812.03;;;-147.39;54.26
3524;BME280;1776;53.330;11.498;2022-10-03T12:28:04;53832.53;;;-147.39;54.02
3524;BME280;1776;53.330;11.498;2022-10-03T12:30:42;53846.88;;;-147.39;54.47
3524;BME280;1776;53.330;11.498;2022-10-03T12:33:29;53836.63;;;-147.39;55.03
3524;BME280;1776;53.330;11.498;2022-10-03T12:42:02;53846.88;;;-147.39;55.84
3524;BME280;1776;53.330;11.498;2022-10-03T12:44:46;53834.56;;;-147.39;55.70
3524;BME280;1776;53.330;11.498;2022-10-03T12:47:39;53824.31;;;-147.39;55.64
3524;BME280;1776;53.330;11.498;2022-10-03T12:50:44;53859.16;;;-147.39;56.14
3524;BME280;1776;53.330;11.498;2022-10-03T12:55:58;54023.06;;;-147.39;56.21
3524;BME280;1776;53.330;11.498;2022-10-03T12:58:49;53824.31;;;-147.39;56.22
3524;BME280;1776;53.330;11.498;2022-10-03T13:04:17;53871.44;;;-147.39;56.02
3524;BME280;1776;53.330;11.498;2022-10-03T13:07:12;53824.31;;;-147.39;56.51
3524;BME280;1776;53.330;11.498;2022-10-03T13:09:57;53826.38;;;-147.39;56.54
3524;BME280;1776;53.330;11.498;2022-10-03T13:12:35;53857.09;;;-147.39;56.80
3524;BME280;1776;53.330;11.498;2022-10-03T13:15:58;53861.19;;;-147.39;56.36
3524;BME280;1776;53.330;11.498;2022-10-03T13:18:45;53830.47;;;-147.39;57.44
3524;BME280;1776;53.330;11.498;2022-10-03T13:27:21;53830.47;;;-147.39;55.97
3524;BME280;1776;53.330;11.498;2022-10-03T13:30:01;53846.88;;;-147.39;56.26
3524;BME280;1776;53.330;11.498;2022-10-03T13:32:35;53842.75;;;-147.39;56.50
3524;BME280;1776;53.330;11.498;2022-10-03T13:35:06;53809.97;;;-147.39;56.35
3524;BME280;1776;53.330;11.498;2022-10-03T13:44:11;53834.56;;;-147.39;56.13
3524;BME280;1776;53.330;11.498;2022-10-03T13:46:46;53805.88;;;-147.39;56.52
3524;BME280;1776;53.330;11.498;2022-10-03T13:49:36;53879.63;;;-147.39;56.73
3524;BME280;1776;53.330;11.498;2022-10-03T13:52:06;53865.31;;;-147.39;57.25
3524;BME280;1776;53.330;11.498;2022-10-03T14:00:22;53834.56;;;-147.39;58.38
3524;BME280;1776;53.330;11.498;2022-10-03T14:05:52;53863.25;;;-147.39;58.80
3524;BME280;1776;53.330;11.498;2022-10-03T14:08:31;53818.19;;;-147.39;58.56
3524;BME280;1776;53.330;11.498;2022-10-03T14:11:24;53844.81;;;-147.39;58.84
3524;BME280;1776;53.330;11.498;2022-10-03T14:14:14;53855.06;;;-147.39;58.23
3524;BME280;1776;53.330;11.498;2022-10-03T14:16:53;53826.38;;;-147.39;58.55
3524;BME280;1776;53.330;11.498;2022-10-03T14:19:34;53789.50;;;-147.39;58.41
3524;BME280;1776;53.330;11.498;2022-10-03T14:22:27;53879.63;;;-147.39;58.14
3524;BME280;1776;53.330;11.498;2022-10-03T14:25:25;53853.00;;;-147.39;57.58
3524;BME280;1776;53.330;11.498;2022-10-03T14:28:24;53842.75;;;-147.39;57.16
3524;BME280;1776;53.330;11.498;2022-10-03T14:36:32;53857.09;;;-147.39;57.67
3524;BME280;1776;53.330;11.498;2022-10-03T14:39:29;53859.16;;;-147.39;57.85
3524;BME280;1776;53.330;11.498;2022-10-03T14:42:26;53844.81;;;-147.39;57.84
3524;BME280;1776;53.330;11.498;2022-10-03T14:45:05;53844.81;;;-147.39;58.27
3524;BME280;1776;53.330;11.498;2022-10-03T14:47:39;53842.75;;;-147.39;58.72
3524;BME280;1776;53.330;11.498;2022-10-03T14:50:06;53859.16;;;-147.39;58.81
3524;BME280;1776;53.330;11.498;2022-10-03T14:52:56;53857.09;;;-147.39;58.70
3524;BME280;1776;53.330;11.498;2022-10-03T14:55:29;53840.72;;;-147.39;58.84
3524;BME280;1776;53.330;11.498;2022-10-03T14:58:00;53844.81;;;-147.39;58.70
3524;BME280;1776;53.330;11.498;2022-10-03T15:00:35;53871.44;;;-147.39;58.95
3524;BME280;1776;53.330;11.498;2022-10-03T15:08:22;53861.19;;;-147.39;61.56
3524;BME280;1776;53.330;11.498;2022-10-03T15:10:51;53842.75;;;-147.39;61.92
3524;BME280;1776;53.330;11.498;2022-10-03T15:13:18;53863.25;;;-147.39;62.31
3524;BME280;1776;53.330;11.498;2022-10-03T15:15:45;53853.00;;;-147.39;62.85
3524;BME280;1776;53.330;11.498;2022-10-03T15:18:14;53867.34;;;-147.39;63.08
3524;BME280;1776;53.330;11.498;2022-10-03T15:20:42;53846.88;;;-147.39;63.15
3524;BME280;1776;53.330;11.498;2022-10-03T15:23:20;53861.19;;;-147.39;63.25
3524;BME280;1776;53.330;11.498;2022-10-03T15:25:48;53865.31;;;-147.39;63.00
3524;BME280;1776;53.330;11.498;2022-10-03T15:28:23;53863.25;;;-147.39;63.10
3524;BME280;1776;53.330;11.498;2022-10-03T15:30:52;53990.28;;;-147.39;63.09
3524;BME280;1776;53.330;11.498;2022-10-03T15:33:28;53848.91;;;-147.39;62.68
3524;BME280;1776;53.330;11.498;2022-10-03T15:36:17;53885.78;;;-147.39;62.61
3524;BME280;1776;53.330;11.498;2022-10-03T15:38:48;53853.00;;;-147.39;62.75
3524;BME280;1776;53.330;11.498;2022-10-03T15:41:21;53863.25;;;-147.39;62.04
3524;BME280;1776;53.330;11.498;2022-10-03T15:43:57;53848.91;;;-147.39;62.18
3524;BME280;1776;53.330;11.498;2022-10-03T15:46:30;53871.44;;;-147.39;62.00
3524;BME280;1776;53.330;11.498;2022-10-03T15:49:00;53877.59;;;-147.39;62.21
3524;BME280;1776;53.330;11.498;2022-10-03T15:51:28;53877.59;;;-147.39;62.35
3524;BME280;1776;53.330;11.498;2022-10-03T15:53:57;53881.69;;;-147.39;62.12
3524;BME280;1776;53.330;11.498;2022-10-03T15:56:42;53861.19;;;-147.39;62.29
3524;BME280;1776;53.330;11.498;2022-10-03T15:59:19;53879.63;;;-147.39;62.36
3524;BME280;1776;53.330;11.498;2022-10-03T16:01:47;53844.81;;;-147.39;62.31
3524;BME280;1776;53.330;11.498;2022-10-03T16:04:23;53877.59;;;-147.39;62.50
3524;BME280;1776;53.330;11.498;2022-10-03T16:07:08;53865.31;;;-147.39;62.63
3524;BME280;1776;53.330;11.498;2022-10-03T16:09:51;53865.31;;;-147.39;62.70
3524;BME280;1776;53.330;11.498;2022-10-03T16:15:22;53887.84;;;-147.39;63.24
3524;BME280;1776;53.330;11.498;2022-10-03T16:18:00;53900.13;;;-147.39;63.69
3524;BME280;1776;53.330;11.498;2022-10-03T16:20:34;53898.06;;;-147.39;63.90
3524;BME280;1776;53.330;11.498;2022-10-03T16:23:21;53871.44;;;-147.39;63.80
3524;BME280;1776;53.330;11.498;2022-10-03T16:25:52;53871.44;;;-147.39;64.30
3524;BME280;1776;53.330;11.498;2022-10-03T16:28:29;53850.97;;;-147.39;64.39
3524;BME280;1776;53.330;11.498;2022-10-03T16:34:10;53887.84;;;-147.39;64.85
3524;BME280;1776;53.330;11.498;2022-10-03T16:36:44;53910.38;;;-147.39;64.86
3524;BME280;1776;53.330;11.498;2022-10-03T16:39:19;53885.78;;;-147.39;65.01
3524;BME280;1776;53.330;11.498;2022-10-03T16:41:46;53881.69;;;-147.39;65.12
3524;BME280;1776;53.330;11.498;2022-10-03T16:47:08;53881.69;;;-147.39;64.88
3524;BME280;1776;53.330;11.498;2022-10-03T16:49:38;53924.72;;;-147.39;65.26
3524;BME280;1776;53.330;11.498;2022-10-03T16:52:35;53850.97;;;-147.39;64.91
3524;BME280;1776;53.330;11.498;2022-10-03T16:55:06;53869.41;;;-147.39;64.92
3524;BME280;1776;53.330;11.498;2022-10-03T16:57:43;53904.22;;;-147.39;64.97
3524;BME280;1776;53.330;11.498;2022-10-03T17:00:16;53875.53;;;-147.39;65.09
3524;BME280;1776;53.330;11.498;2022-10-03T17:02:44;53889.88;;;-147.39;65.07
3524;BME280;1776;53.330;11.498;2022-10-03T17:05:12;53865.31;;;-147.39;64.89
3524;BME280;1776;53.330;11.498;2022-10-03T17:07:41;53896.03;;;-147.39;64.98
3524;BME280;1776;53.330;11.498;2022-10-03T17:10:25;53863.25;;;-147.39;64.71
3524;BME280;1776;53.330;11.498;2022-10-03T17:12:53;53891.94;;;-147.39;64.50
3524;BME280;1776;53.330;11.498;2022-10-03T17:15:24;53889.88;;;-147.39;64.75
3524;BME280;1776;53.330;11.498;2022-10-03T17:20:56;53877.59;;;-147.39;64.67
3524;BME280;1776;53.330;11.498;2022-10-03T17:26:01;53879.63;;;-147.39;65.17
3524;BME280;1776;53.330;11.498;2022-10-03T17:28:36;53871.44;;;-147.39;65.44
3524;BME280;1776;53.330;11.498;2022-10-03T17:31:05;53857.09;;;-147.39;65.73
3524;BME280;1776;53.330;11.498;2022-10-03T17:33:48;53992.31;;;-147.39;65.69
3524;BME280;1776;53.330;11.498;2022-10-03T17:36:39;53902.19;;;-147.39;65.89
3524;BME280;1776;53.330;11.498;2022-10-03T17:39:37;53891.94;;;-147.39;65.92
3524;BME280;1776;53.330;11.498;2022-10-03T17:44:43;53896.03;;;-147.39;66.56
3524;BME280;1776;53.330;11.498;2022-10-03T17:47:21;53871.44;;;-147.39;66.67
3524;BME280;1776;53.330;11.498;2022-10-03T17:50:02;53904.22;;;-147.39;66.64
3524;BME280;1776;53.330;11.498;2022-10-03T17:52:29;53908.31;;;-147.39;66.96
3524;BME280;1776;53.330;11.498;2022-10-03T17:55:01;53887.84;;;-147.39;66.78
3524;BME280;1776;53.330;11.498;2022-10-03T17:57:44;53893.97;;;-147.39;66.60
3524;BME280;1776;53.330;11.498;2022-10-03T18:00:22;53908.31;;;-147.39;66.85
3524;BME280;1776;53.330;11.498;2022-10-03T18:03:01;53898.06;;;-147.39;66.87
3524;BME280;1776;53.330;11.498;2022-10-03T18:05:43;53916.50;;;-147.39;66.77
3524;BME280;1776;53.330;11.498;2022-10-03T18:08:16;53945.19;;;-147.39;66.88
3524;BME280;1776;53.330;11.498;2022-10-03T18:10:48;53908.31;;;-147.39;66.90
3524;BME280;1776;53.330;11.498;2022-10-03T18:13:20;53883.75;;;-147.39;67.26
3524;BME280;1776;53.330;11.498;2022-10-03T18:18:51;53896.03;;;-147.39;67.54
3524;BME280;1776;53.330;11.498;2022-10-03T18:21:44;53914.47;;;-147.39;67.79
3524;BME280;1776;53.330;11.498;2022-10-03T18:27:29;53930.84;;;-147.39;68.03
3524;BME280;1776;53.330;11.498;2022-10-03T18:30:04;53883.75;;;-147.39;68.30
3524;BME280;1776;53.330;11.498;2022-10-03T18:32:35;53920.63;;;-147.39;68.30
3524;BME280;1776;53.330;11.498;2022-10-03T18:35:21;53939.06;;;-147.39;68.54
3524;BME280;1776;53.330;11.498;2022-10-03T18:38:04;53924.72;;;-147.39;68.65
3524;BME280;1776;53.330;11.498;2022-10-03T18:40:53;53889.88;;;-147.39;68.53
3524;BME280;1776;53.330;11.498;2022-10-03T18:45:58;54002.56;;;-147.39;69.16
3524;BME280;1776;53.330;11.498;2022-10-03T18:48:40;53908.31;;;-147.39;69.18
3524;BME280;1776;53.330;11.498;2022-10-03T18:51:26;53920.63;;;-147.39;69.30
3524;BME280;1776;53.330;11.498;2022-10-03T18:53:58;53908.31;;;-147.39;69.82
3524;BME280;1776;53.330;11.498;2022-10-03T18:56:26;53980.03;;;-147.39;69.88
3524;BME280;1776;53.330;11.498;2022-10-03T18:59:24;53898.06;;;-147.39;70.07
3524;BME280;1776;53.330;11.498;2022-10-03T19:01:56;53910.38;;;-147.39;70.41
3524;BME280;1776;53.330;11.498;2022-10-03T19:04:42;53928.81;;;-147.39;70.47
3524;BME280;1776;53.330;11.498;2022-10-03T19:07:15;53918.56;;;-147.39;70.59
3524;BME280;1776;53.330;11.498;2022-10-03T19:10:34;53887.84;;;-147.39;70.65
3524;BME280;1776;53.330;11.498;2022-10-03T19:12:34;54027.16;;;-147.39;70.75
3524;BME280;1776;53.330;11.498;2022-10-03T19:15:18;53912.41;;;-147.39;70.71
3524;BME280;1776;53.330;11.498;2022-10-03T19:17:59;53885.78;;;-147.39;70.91
3524;BME280;1776;53.330;11.498;2022-10-03T19:20:32;53943.16;;;-147.39;70.83
3524;BME280;1776;53.330;11.498;2022-10-03T19:23:07;53930.84;;;-147.39;71.19
3524;BME280;1776;53.330;11.498;2022-10-03T19:25:37;53902.19;;;-147.39;71.33
3524;BME280;1776;53.330;11.498;2022-10-03T19:28:21;53953.41;;;-147.39;71.29
3524;BME280;1776;53.330;11.498;2022-10-03T19:31:05;53912.41;;;-147.39;71.51
3524;BME280;1776;53.330;11.498;2022-10-03T19:33:36;53922.66;;;-147.39;71.70
3524;BME280;1776;53.330;11.498;2022-10-03T19:36:06;53945.19;;;-147.39;71.48
3524;BME280;1776;53.330;11.498;2022-10-03T19:38:42;53910.38;;;-147.39;71.91
3524;BME280;1776;53.330;11.498;2022-10-03T19:41:30;53943.16;;;-147.39;72.05
3524;BME280;1776;53.330;11.498;2022-10-03T19:44:03;53934.97;;;-147.39;72.04
3524;BME280;1776;53.330;11.498;2022-10-03T19:46:56;53959.53;;;-147.39;72.07
3524;BME280;1776;53.330;11.498;2022-10-03T19:49:34;53932.91;;;-147.39;72.23
3524;BME280;1776;53.330;11.498;2022-10-03T19:52:25;53949.28;;;-147.39;72.08
3524;BME280;1776;53.330;11.498;2022-10-03T20:02:38;53939.06;;;-147.39;72.48
3524;BME280;1776;53.330;11.498;2022-10-03T20:05:05;53916.50;;;-147.39;72.66
3524;BME280;1776;53.330;11.498;2022-10-03T20:07:59;53959.53;;;-147.39;72.62
3524;BME280;1776;53.330;11.498;2022-10-03T20:12:56;53963.63;;;-147.39;72.51
3524;BME280;1776;53.330;11.498;2022-10-03T20:15:32;53957.50;;;-147.39;73.03
3524;BME280;1776;53.330;11.498;2022-10-03T20:17:59;54031.25;;;-147.39;73.08
3524;BME280;1776;53.330;11.498;2022-10-03T20:20:27;53949.28;;;-147.39;72.96
3524;BME280;1776;53.330;11.498;2022-10-03T20:23:01;53949.28;;;-147.39;72.89
3524;BME280;1776;53.330;11.498;2022-10-03T20:25:34;53965.69;;;-147.39;72.81
3524;BME280;1776;53.330;11.498;2022-10-03T20:28:04;53932.91;;;-147.39;72.90
3524;BME280;1776;53.330;11.498;2022-10-03T20:30:57;53951.34;;;-147.39;72.77
3524;BME280;1776;53.330;11.498;2022-10-03T20:33:30;54004.63;;;-147.39;73.07
3524;BME280;1776;53.330;11.498;2022-10-03T20:36:12;53937.00;;;-147.39;73.32
3524;BME280;1776;53.330;11.498;2022-10-03T20:39:06;53914.47;;;-147.39;73.18
3524;BME280;1776;53.330;11.498;2022-10-03T20:49:53;53953.41;;;-147.39;74.35
3524;BME280;1776;53.330;11.498;2022-10-03T20:52:20;53967.72;;;-147.39;74.41
3524;BME280;1776;53.330;11.498;2022-10-03T20:54:57;53953.41;;;-147.39;74.51
3524;BME280;1776;53.330;11.498;2022-10-03T20:57:26;53965.69;;;-147.39;74.43
3524;BME280;1776;53.330;11.498;2022-10-03T21:00:18;53988.22;;;-147.39;74.24
3524;BME280;1776;53.330;11.498;2022-10-03T21:02:58;53922.66;;;-147.39;74.30
3524;BME280;1776;53.330;11.498;2022-10-03T21:05:37;53947.25;;;-147.39;74.40
3524;BME280;1776;53.330;11.498;2022-10-03T21:08:12;53945.19;;;-147.39;74.73
3524;BME280;1776;53.330;11.498;2022-10-03T21:10:46;53953.41;;;-147.39;74.72
3524;BME280;1776;53.330;11.498;2022-10-03T21:13:53;53955.44;;;-147.39;74.47
3524;BME280;1776;53.330;11.498;2022-10-03T21:16:23;53951.34;;;-147.39;74.58